Time;durP1;ratioP1;P1;durP2;ratioP2;P2;SDS_P1;SDS_P2;PMS_P1;PMS_P2;Temp;Humidity;BMP_temperature;BMP_pressure;BME280_temperature;BME280_humidity;BME280_pressure;Samples;Min_cycle;Max_cycle;Signal;HPM_P1;HPM_P2
2021/01/07 00:00:30;;;;;;;2.15;0.30;;;14.70;50.20;;;;;;6197319;23;20077;-84
2021/01/07 00:02:56;;;;;;;1.05;0.30;;;14.70;50.90;;;;;;6196514;23;20040;-83
2021/01/07 00:05:22;;;;;;;0.70;0.30;;;14.70;50.20;;;;;;6221732;23;20039;-86
2021/01/07 00:07:48;;;;;;;0.77;0.28;;;14.70;50.20;;;;;;6197607;23;20040;-86
2021/01/07 00:10:22;;;;;;;1.30;0.40;;;14.70;50.20;;;;;;6197367;23;20016;-86
2021/01/07 00:12:48;;;;;;;1.58;0.30;;;14.70;50.20;;;;;;6196790;23;20022;-86
2021/01/07 00:15:14;;;;;;;0.85;0.30;;;14.70;50.20;;;;;;6196054;23;20024;-85
2021/01/07 00:17:41;;;;;;;0.52;0.20;;;14.70;50.20;;;;;;6197801;23;20031;-83
2021/01/07 00:20:16;;;;;;;0.70;0.20;;;14.70;50.20;;;;;;6197481;23;20020;-85
2021/01/07 00:22:42;;;;;;;0.60;0.30;;;14.70;50.80;;;;;;6196786;23;20016;-84
2021/01/07 00:25:10;;;;;;;0.50;0.20;;;14.70;50.20;;;;;;6196557;23;20024;-84
2021/01/07 00:27:36;;;;;;;0.45;0.30;;;14.70;50.20;;;;;;6196816;23;20015;-86
2021/01/07 00:30:05;;;;;;;1.25;0.40;;;14.70;50.10;;;;;;6196288;23;20058;-84
2021/01/07 00:32:31;;;;;;;1.17;0.30;;;14.60;50.00;;;;;;6196966;23;20020;-84
2021/01/07 00:34:57;;;;;;;0.30;0.10;;;14.70;50.20;;;;;;6196676;23;20082;-83
2021/01/07 00:37:23;;;;;;;0.63;0.20;;;14.70;50.20;;;;;;6196702;23;20019;-86
2021/01/07 00:39:49;;;;;;;0.80;0.20;;;14.70;50.20;;;;;;6196526;23;20012;-84
2021/01/07 00:42:17;;;;;;;0.85;0.20;;;14.60;50.10;;;;;;6196449;23;20027;-85
2021/01/07 00:44:44;;;;;;;0.43;0.10;;;14.70;50.10;;;;;;6221446;23;20020;-84
2021/01/07 00:47:11;;;;;;;0.60;0.17;;;14.60;50.00;;;;;;6197085;23;20061;-84
2021/01/07 00:49:37;;;;;;;0.50;0.10;;;14.70;50.10;;;;;;6196664;23;20024;-86
2021/01/07 00:52:05;;;;;;;1.85;0.35;;;14.70;50.00;;;;;;6196884;23;20046;-85
2021/01/07 00:54:31;;;;;;;0.88;0.25;;;14.70;50.10;;;;;;6195928;23;20020;-85
2021/01/07 00:57:00;;;;;;;0.70;0.20;;;14.60;50.70;;;;;;6196463;23;20081;-86
2021/01/07 00:59:26;;;;;;;0.90;0.10;;;14.60;50.00;;;;;;6196404;23;20295;-85
2021/01/07 01:01:57;;;;;;;0.60;0.20;;;14.70;50.10;;;;;;6197541;23;20016;-85
2021/01/07 01:04:23;;;;;;;0.73;0.20;;;14.70;50.10;;;;;;6196830;23;20433;-86
2021/01/07 01:06:49;;;;;;;0.45;0.10;;;14.70;50.10;;;;;;6196517;23;20020;-85
2021/01/07 01:09:15;;;;;;;1.15;0.30;;;14.70;50.10;;;;;;6196420;23;20016;-85
2021/01/07 01:11:43;;;;;;;0.85;0.20;;;14.60;50.00;;;;;;6197137;23;20047;-84
2021/01/07 01:14:10;;;;;;;1.00;0.22;;;14.70;50.10;;;;;;6196867;23;20422;-85
2021/01/07 01:16:39;;;;;;;0.82;0.20;;;14.70;50.00;;;;;;6221787;23;20413;-85
2021/01/07 01:19:05;;;;;;;0.30;0.10;;;14.70;50.00;;;;;;6196737;23;20330;-85
2021/01/07 01:21:33;;;;;;;0.70;0.20;;;14.70;50.30;;;;;;6195386;23;20012;-86
2021/01/07 01:23:59;;;;;;;0.52;0.10;;;14.60;50.00;;;;;;6196467;23;20040;-85
2021/01/07 01:26:25;;;;;;;0.45;0.13;;;14.60;50.00;;;;;;6196247;23;20016;-84
2021/01/07 01:28:51;;;;;;;0.75;0.20;;;14.60;50.00;;;;;;6196605;23;20087;-84
2021/01/07 01:31:18;;;;;;;0.70;0.35;;;14.60;50.00;;;;;;6221472;23;20035;-84
2021/01/07 01:33:44;;;;;;;0.50;0.17;;;14.70;50.00;;;;;;6195457;23;20384;-85
2021/01/07 01:36:10;;;;;;;0.25;0.20;;;14.60;49.90;;;;;;6196391;23;20012;-85
2021/01/07 01:38:36;;;;;;;0.60;0.20;;;14.60;50.00;;;;;;6196456;23;20107;-86
2021/01/07 01:41:06;;;;;;;0.70;0.35;;;14.60;50.00;;;;;;6196388;23;20016;-84
2021/01/07 01:43:36;;;;;;;0.65;0.20;;;14.60;50.00;;;;;;6195706;23;20433;-85
2021/01/07 01:46:03;;;;;;;0.32;0.20;;;14.60;50.00;;;;;;6196005;23;20430;-86
2021/01/07 01:48:30;;;;;;;0.73;0.20;;;14.60;50.00;;;;;;6195864;23;20489;-84
2021/01/07 01:50:58;;;;;;;0.90;0.20;;;14.60;50.00;;;;;;6196103;23;20020;-84
2021/01/07 01:53:26;;;;;;;1.63;0.20;;;14.60;50.00;;;;;;6196440;23;20501;-84
2021/01/07 01:55:55;;;;;;;0.47;0.10;;;14.60;50.00;;;;;;6196035;23;20020;-84
2021/01/07 01:58:26;;;;;;;1.05;0.10;;;14.60;50.00;;;;;;6196129;23;20020;-84
2021/01/07 02:00:52;;;;;;;0.85;0.10;;;14.60;50.00;;;;;;6196554;23;20020;-85
2021/01/07 02:03:20;;;;;;;0.50;0.10;;;14.60;50.00;;;;;;6221797;23;20027;-85
2021/01/07 02:05:50;;;;;;;0.25;0.10;;;14.60;50.00;;;;;;6196020;23;20012;-85
2021/01/07 02:08:17;;;;;;;0.50;0.10;;;14.60;50.00;;;;;;6198058;23;20020;-84
2021/01/07 02:10:43;;;;;;;0.77;0.10;;;14.60;50.00;;;;;;6198318;23;20012;-84
2021/01/07 02:13:09;;;;;;;0.20;0.17;;;14.60;50.00;;;;;;6198006;23;20051;-85
2021/01/07 02:15:42;;;;;;;1.23;0.20;;;14.60;50.00;;;;;;6197850;23;20313;-84
2021/01/07 02:18:09;;;;;;;0.50;0.10;;;14.60;49.90;;;;;;6197401;23;20020;-86
2021/01/07 02:20:38;;;;;;;0.22;0.10;;;14.60;50.00;;;;;;6198054;23;20039;-84
2021/01/07 02:23:07;;;;;;;1.98;0.20;;;14.60;50.10;;;;;;6198183;23;20021;-85
2021/01/07 02:25:33;;;;;;;0.80;0.20;;;14.60;50.00;;;;;;6197118;23;20027;-85
2021/01/07 02:27:59;;;;;;;1.05;0.20;;;14.60;50.00;;;;;;6198121;23;20022;-84
2021/01/07 02:30:26;;;;;;;0.60;0.20;;;14.60;50.00;;;;;;6197624;23;20016;-86
2021/01/07 02:32:55;;;;;;;0.40;0.10;;;14.60;50.00;;;;;;6198745;23;20047;-86
2021/01/07 02:35:21;;;;;;;0.75;0.20;;;14.60;50.10;;;;;;6198192;23;20016;-85
2021/01/07 02:37:47;;;;;;;0.75;0.20;;;14.60;50.20;;;;;;6197952;23;20413;-85
2021/01/07 02:40:14;;;;;;;0.50;0.20;;;14.60;50.30;;;;;;6197464;23;20016;-84
2021/01/07 02:42:40;;;;;;;0.38;0.10;;;14.60;50.30;;;;;;6198025;23;20016;-85
2021/01/07 02:45:10;;;;;;;0.43;0.10;;;14.60;50.30;;;;;;6197316;23;20043;-84
2021/01/07 02:47:38;;;;;;;0.35;0.10;;;14.60;50.40;;;;;;6197172;23;20341;-85
2021/01/07 02:50:08;;;;;;;0.20;0.10;;;14.60;50.40;;;;;;6198047;23;20044;-84
2021/01/07 02:52:34;;;;;;;0.40;0.20;;;14.60;50.40;;;;;;6222663;23;20078;-86
2021/01/07 02:55:00;;;;;;;0.40;0.10;;;14.50;50.30;;;;;;6197328;23;20444;-85
2021/01/07 02:57:26;;;;;;;0.25;0.10;;;14.60;50.40;;;;;;6197722;23;20380;-86
2021/01/07 02:59:55;;;;;;;0.45;0.10;;;14.50;50.30;;;;;;6199209;23;20012;-85
2021/01/07 03:02:22;;;;;;;0.57;0.10;;;14.60;50.40;;;;;;6198125;23;20038;-84
2021/01/07 03:04:48;;;;;;;1.13;0.20;;;14.60;50.40;;;;;;6222206;23;20337;-86
2021/01/07 03:07:16;;;;;;;0.73;0.17;;;14.50;50.40;;;;;;6198117;23;20020;-84
2021/01/07 03:09:43;;;;;;;0.52;0.20;;;14.50;50.40;;;;;;6197520;23;20095;-85
2021/01/07 03:12:14;;;;;;;0.70;0.13;;;14.50;50.30;;;;;;6196982;23;20020;-84
2021/01/07 03:14:40;;;;;;;0.80;0.20;;;14.60;50.40;;;;;;6197555;23;20039;-86
2021/01/07 03:17:09;;;;;;;0.80;0.20;;;14.50;50.40;;;;;;6197835;23;20020;-84
2021/01/07 03:19:35;;;;;;;0.25;0.10;;;14.50;50.40;;;;;;6197142;23;20019;-84
2021/01/07 03:22:07;;;;;;;1.50;0.32;;;14.50;50.40;;;;;;6197411;23;20016;-84
2021/01/07 03:24:34;;;;;;;0.40;0.10;;;14.50;50.40;;;;;;6223156;23;20051;-85
2021/01/07 03:27:03;;;;;;;0.38;0.10;;;14.50;50.40;;;;;;6222137;23;20032;-84
2021/01/07 03:29:31;;;;;;;0.50;0.13;;;14.50;50.40;;;;;;6196845;23;20016;-86
2021/01/07 03:31:59;;;;;;;0.45;0.20;;;14.50;50.40;;;;;;6197936;23;20078;-85
2021/01/07 03:34:26;;;;;;;0.52;0.20;;;14.50;50.40;;;;;;6197413;23;20038;-85
2021/01/07 03:36:52;;;;;;;0.68;0.20;;;14.50;50.40;;;;;;6197777;23;20103;-84
2021/01/07 03:39:21;;;;;;;1.00;0.20;;;14.50;50.40;;;;;;6197731;23;20095;-85
2021/01/07 03:41:46;;;;;;;0.60;0.30;;;14.50;50.50;;;;;;6198001;23;20050;-85
2021/01/07 03:44:13;;;;;;;0.32;0.10;;;14.50;50.50;;;;;;6197603;23;20039;-84
2021/01/07 03:46:41;;;;;;;0.57;0.20;;;14.50;50.50;;;;;;6197454;23;20020;-84
2021/01/07 03:49:08;;;;;;;0.22;0.20;;;14.50;50.40;;;;;;6197412;23;20070;-85
2021/01/07 03:51:34;;;;;;;0.55;0.10;;;14.50;50.50;;;;;;6196936;23;20028;-85
2021/01/07 03:54:03;;;;;;;0.32;0.13;;;14.50;50.50;;;;;;6197319;23;20038;-84
2021/01/07 03:56:29;;;;;;;0.40;0.20;;;14.50;50.50;;;;;;6197017;23;20020;-84
2021/01/07 03:58:56;;;;;;;0.90;0.22;;;14.50;51.10;;;;;;6131512;23;20024;-85
2021/01/07 04:01:22;;;;;;;0.30;0.10;;;14.50;50.50;;;;;;6106569;23;20079;-84
2021/01/07 04:03:48;;;;;;;0.95;0.20;;;14.50;50.50;;;;;;6106719;23;20096;-85
2021/01/07 04:06:19;;;;;;;0.63;0.20;;;14.50;50.50;;;;;;6108141;23;20018;-84
2021/01/07 04:08:49;;;;;;;0.40;0.10;;;14.50;50.50;;;;;;6106757;23;20014;-85
2021/01/07 04:11:15;;;;;;;0.50;0.10;;;14.40;50.50;;;;;;6106415;23;20017;-86
2021/01/07 04:13:45;;;;;;;0.52;0.10;;;14.50;50.60;;;;;;6107815;23;20021;-85
2021/01/07 04:16:15;;;;;;;0.32;0.10;;;14.50;50.60;;;;;;6106735;23;20296;-86
2021/01/07 04:18:47;;;;;;;0.82;0.20;;;14.50;50.50;;;;;;6106656;23;20014;-83
2021/01/07 04:21:17;;;;;;;0.60;0.10;;;14.50;50.50;;;;;;6107053;23;20451;-85
2021/01/07 04:23:47;;;;;;;0.90;0.40;;;14.50;50.60;;;;;;6107016;23;20121;-84
2021/01/07 04:26:16;;;;;;;1.50;0.20;;;14.40;50.50;;;;;;6105857;23;20029;-84
2021/01/07 04:28:44;;;;;;;0.52;0.15;;;14.50;50.60;;;;;;6108487;23;20025;-84
2021/01/07 04:31:10;;;;;;;0.50;0.10;;;14.50;50.60;;;;;;6196724;23;20039;-85
2021/01/07 04:33:36;;;;;;;0.52;0.13;;;14.50;50.50;;;;;;6196817;23;20038;-84
2021/01/07 04:36:03;;;;;;;0.75;0.20;;;14.50;50.50;;;;;;6222024;23;20016;-86
2021/01/07 04:38:30;;;;;;;0.20;0.10;;;14.50;50.50;;;;;;6198005;23;20070;-84
2021/01/07 04:40:56;;;;;;;0.77;0.17;;;14.50;50.40;;;;;;6196851;23;20024;-85
2021/01/07 04:43:24;;;;;;;0.43;0.10;;;14.50;50.40;;;;;;6197204;23;20035;-86
2021/01/07 04:45:50;;;;;;;1.48;0.20;;;14.50;50.40;;;;;;6196879;23;20425;-85
2021/01/07 04:48:17;;;;;;;1.27;0.25;;;14.50;50.40;;;;;;6196468;23;20034;-83
2021/01/07 04:50:46;;;;;;;0.20;0.10;;;14.50;50.30;;;;;;6197574;23;20081;-85
2021/01/07 04:53:14;;;;;;;0.70;0.10;;;14.50;50.40;;;;;;6221562;23;20035;-84
2021/01/07 04:55:40;;;;;;;0.55;0.20;;;14.50;50.30;;;;;;6196272;23;20016;-84
2021/01/07 04:58:10;;;;;;;0.30;0.22;;;14.50;50.30;;;;;;6222166;23;20495;-86
2021/01/07 05:00:37;;;;;;;1.02;0.10;;;14.50;50.30;;;;;;6196545;23;20019;-85
2021/01/07 05:03:08;;;;;;;0.20;0.10;;;14.50;50.30;;;;;;6221872;23;20430;-85
2021/01/07 05:05:37;;;;;;;0.30;0.10;;;14.50;50.30;;;;;;6198022;23;20464;-84
2021/01/07 05:08:09;;;;;;;0.30;0.10;;;14.50;50.30;;;;;;6197431;23;20020;-85
2021/01/07 05:10:42;;;;;;;0.30;0.00;;;14.50;50.30;;;;;;6197132;23;20314;-84
2021/01/07 05:13:13;;;;;;;0.57;0.13;;;14.50;50.30;;;;;;6196742;23;20364;-85
2021/01/07 05:15:41;;;;;;;0.93;0.30;;;14.50;50.30;;;;;;6196185;23;20024;-85
2021/01/07 05:18:11;;;;;;;0.25;0.10;;;14.50;50.40;;;;;;6196473;23;20032;-86
2021/01/07 05:20:39;;;;;;;0.25;0.10;;;14.50;50.40;;;;;;6159769;23;20025;-86
2021/01/07 05:23:07;;;;;;;1.45;0.10;;;14.50;50.50;;;;;;6136565;23;20017;-85
2021/01/07 05:25:36;;;;;;;1.17;0.20;;;14.50;50.50;;;;;;6135756;23;20067;-84
2021/01/07 05:28:06;;;;;;;2.47;0.10;;;14.50;50.50;;;;;;6136661;23;20080;-84
2021/01/07 05:30:38;;;;;;;0.77;0.10;;;14.50;50.50;;;;;;6135451;23;20017;-85
2021/01/07 05:33:09;;;;;;;0.70;0.10;;;14.50;50.70;;;;;;6136017;23;20016;-91
2021/01/07 05:35:37;;;;;;;0.80;0.13;;;14.60;51.00;;;;;;6160136;23;20040;-84
2021/01/07 05:38:08;;;;;;;1.60;0.22;;;14.60;51.50;;;;;;6185235;23;20087;-86
2021/01/07 05:41:15;;;;;;;2.80;0.15;;;14.60;51.70;;;;;;6136833;23;20024;-85
2021/01/07 05:44:12;;;;;;;4.80;0.20;;;14.70;51.90;;;;;;6162387;23;20386;-83
2021/01/07 05:46:46;;;;;;;4.97;0.35;;;14.70;52.10;;;;;;6222617;23;20020;-84
2021/01/07 05:49:18;;;;;;;7.43;0.28;;;14.80;52.50;;;;;;6197961;23;20031;-83
2021/01/07 05:51:46;;;;;;;2.50;0.20;;;14.80;52.50;;;;;;6223482;23;20032;-83
2021/01/07 05:54:13;;;;;;;5.70;0.57;;;14.80;52.60;;;;;;6198587;23;20091;-83
2021/01/07 05:56:42;;;;;;;2.03;0.30;;;14.90;52.60;;;;;;6223612;23;20023;-83
2021/01/07 05:59:08;;;;;;;4.28;0.30;;;14.90;52.50;;;;;;6222870;23;20362;-82
2021/01/07 06:01:36;;;;;;;5.10;0.20;;;15.00;52.60;;;;;;6223354;23;20015;-83
2021/01/07 06:04:06;;;;;;;1.58;0.10;;;15.10;52.50;;;;;;6222923;23;20410;-83
2021/01/07 06:06:32;;;;;;;2.13;0.10;;;15.10;52.40;;;;;;6223065;23;20012;-83
2021/01/07 06:08:59;;;;;;;1.27;0.10;;;15.10;52.30;;;;;;6197545;23;20024;-83
2021/01/07 06:18:07;;;;;;;4.05;0.30;;;15.30;52.90;;;;;;6100050;23;20424;-86
2021/01/07 06:20:34;;;;;;;3.50;0.30;;;15.30;53.20;;;;;;6169195;23;20356;-85
2021/01/07 06:23:16;;;;;;;4.03;0.32;;;15.40;53.60;;;;;;6198458;23;20329;-85
2021/01/07 06:25:42;;;;;;;3.03;0.52;;;15.40;53.80;;;;;;6197238;23;20020;-84
2021/01/07 06:28:29;;;;;;;1.90;0.20;;;15.50;54.10;;;;;;6222037;23;20040;-89
2021/01/07 06:32:00;;;;;;;2.67;0.30;;;15.60;54.40;;;;;;6196548;23;20161;-88
2021/01/07 06:34:38;;;;;;;6.43;0.40;;;15.70;54.30;;;;;;6046827;23;20042;-84
2021/01/07 06:37:45;;;;;;;4.05;0.35;;;15.70;55.00;;;;;;6223102;23;20020;-86
2021/01/07 06:41:12;;;;;;;;;;;;;;;;;;;;;
2021/01/07 06:48:30;;;;;;;3.45;1.30;;;15.90;54.90;;;;;;6010386;23;20079;-88
2021/01/07 06:55:15;;;;;;;3.20;1.35;;;15.90;54.70;;;;;;6096603;23;20117;-87
2021/01/07 07:05:28;;;;;;;4.55;2.50;;;16.00;54.60;;;;;;6121813;23;20032;-87
2021/01/07 07:09:22;;;;;;;;;;;;;;;;;;;;;
2021/01/07 07:12:56;;;;;;;2.03;1.13;;;15.80;54.40;;;;;;6055362;23;20032;-88
2021/01/07 07:16:12;;;;;;;4.95;1.35;;;15.80;54.40;;;;;;6129536;23;20013;-88
2021/01/07 07:19:07;;;;;;;;;;;;;;;;;;;;;
2021/01/07 07:22:05;;;;;;;4.50;1.10;;;15.90;54.40;;;;;;6152450;23;20025;-86
2021/01/07 07:24:42;;;;;;;2.22;0.50;;;15.90;55.00;;;;;;6107134;23;20360;-85
2021/01/07 07:27:17;;;;;;;6.47;0.98;;;15.90;54.40;;;;;;6105540;23;20024;-87
2021/01/07 07:30:43;;;;;;;;;;;;;;;;;;;;;
2021/01/07 07:37:54;;;;;;;2.38;0.32;;;16.00;53.90;;;;;;6089363;23;20026;-87
2021/01/07 07:40:56;;;;;;;3.28;0.52;;;15.90;53.70;;;;;;6096948;23;20021;-87
2021/01/07 07:43:24;;;;;;;1.65;0.52;;;16.00;53.60;;;;;;6196664;23;20016;-85
2021/01/07 07:45:58;;;;;;;1.38;0.40;;;15.90;53.10;;;;;;6195852;23;20095;-84
2021/01/07 07:48:28;;;;;;;5.88;0.85;;;15.90;52.60;;;;;;6196436;23;20078;-85
2021/01/07 07:51:07;;;;;;;5.35;0.68;;;15.90;53.50;;;;;;6222308;23;20020;-86
2021/01/07 07:53:33;;;;;;;4.55;0.60;;;16.00;53.50;;;;;;6197078;23;20425;-84
2021/01/07 07:55:59;;;;;;;3.70;0.73;;;15.90;53.70;;;;;;6196780;23;20027;-84
2021/01/07 07:58:25;;;;;;;4.30;0.50;;;15.90;53.60;;;;;;6195791;23;20031;-83
2021/01/07 08:00:53;;;;;;;3.28;0.50;;;15.90;53.40;;;;;;6221460;23;20309;-85
2021/01/07 08:03:26;;;;;;;4.25;0.40;;;16.00;53.40;;;;;;6197342;23;20016;-86
2021/01/07 08:05:53;;;;;;;5.28;0.68;;;15.90;53.30;;;;;;6222094;23;20013;-83
2021/01/07 08:08:22;;;;;;;2.65;0.50;;;15.80;53.50;;;;;;6196846;23;20306;-83
2021/01/07 08:10:48;;;;;;;2.67;0.68;;;15.90;53.50;;;;;;6196745;23;20376;-84
2021/01/07 08:13:15;;;;;;;1.35;0.40;;;15.90;53.60;;;;;;6197501;23;20055;-84
2021/01/07 08:15:47;;;;;;;4.03;0.50;;;15.90;53.50;;;;;;6197426;23;20036;-84
2021/01/07 08:18:25;;;;;;;1.77;0.30;;;15.90;53.50;;;;;;6196946;23;20020;-83
2021/01/07 08:20:55;;;;;;;4.53;0.45;;;15.90;53.50;;;;;;6196236;23;20016;-86
2021/01/07 08:23:22;;;;;;;6.63;0.70;;;15.90;54.20;;;;;;6196673;23;20032;-83
2021/01/07 08:25:50;;;;;;;4.20;0.47;;;15.90;54.30;;;;;;6196158;23;20321;-84
2021/01/07 08:28:36;;;;;;;4.10;0.47;;;16.00;54.50;;;;;;6197071;23;20051;-85
2021/01/07 08:31:18;;;;;;;6.13;0.40;;;16.00;54.40;;;;;;6195935;23;20016;-84
2021/01/07 08:33:45;;;;;;;7.13;0.65;;;16.10;54.10;;;;;;6195215;23;20429;-84
2021/01/07 08:36:18;;;;;;;5.32;0.40;;;16.10;54.20;;;;;;6196608;23;20094;-83
2021/01/07 08:38:54;;;;;;;8.13;0.95;;;16.10;54.20;;;;;;6196147;23;20016;-83
2021/01/07 08:41:20;;;;;;;6.10;0.52;;;16.10;54.10;;;;;;6196761;23;20487;-83
2021/01/07 08:43:58;;;;;;;6.35;0.52;;;16.10;54.20;;;;;;6195591;23;20046;-84
2021/01/07 08:46:37;;;;;;;9.40;1.33;;;16.10;54.10;;;;;;6196342;23;20016;-83
2021/01/07 08:49:08;;;;;;;10.85;0.50;;;16.10;54.30;;;;;;6221344;23;20016;-84
2021/01/07 08:51:46;;;;;;;6.30;0.98;;;16.20;54.20;;;;;;6196988;23;20016;-84
2021/01/07 08:54:16;;;;;;;5.38;0.57;;;16.10;54.10;;;;;;6196334;23;20065;-84
2021/01/07 08:56:47;;;;;;;6.93;0.60;;;16.20;54.10;;;;;;6196650;23;20020;-82
2021/01/07 08:59:33;;;;;;;5.75;0.50;;;16.20;54.10;;;;;;6221101;23;20016;-83
2021/01/07 09:02:17;;;;;;;4.28;0.45;;;16.20;54.00;;;;;;6194231;23;20024;-83
2021/01/07 09:04:46;;;;;;;;;;;16.20;54.00;;;;;;6194062;23;20107;-82
2021/01/07 09:11:27;;;;;;;10.43;0.85;;;16.10;54.00;;;;;;6256948;23;20016;-84
2021/01/07 09:17:48;;;;;;;7.05;0.52;;;16.10;53.80;;;;;;6218888;23;20261;-84
2021/01/07 09:20:21;;;;;;;9.88;0.40;;;16.20;53.60;;;;;;6193566;23;20101;-84
2021/01/07 09:22:49;;;;;;;6.70;0.47;;;16.20;53.70;;;;;;6196686;23;20020;-86
2021/01/07 09:25:22;;;;;;;7.75;0.93;;;16.20;54.10;;;;;;6195530;23;20028;-83
2021/01/07 09:27:51;;;;;;;6.32;0.70;;;16.30;54.10;;;;;;6194487;23;20261;-92
2021/01/07 09:30:22;;;;;;;5.22;0.80;;;16.30;54.20;;;;;;6194028;23;20013;-84
2021/01/07 09:32:54;;;;;;;5.15;0.80;;;16.40;54.50;;;;;;6221448;23;20509;-83
2021/01/07 09:35:20;;;;;;;5.78;0.35;;;16.40;54.10;;;;;;6196255;23;20027;-83
2021/01/07 09:37:46;;;;;;;5.10;0.32;;;16.40;53.80;;;;;;6231171;23;20058;-84
2021/01/07 09:40:12;;;;;;;6.55;0.65;;;16.40;53.60;;;;;;6195799;23;20095;-82
2021/01/07 09:42:39;;;;;;;8.82;0.45;;;16.40;53.80;;;;;;6195568;23;20016;-84
2021/01/07 09:45:12;;;;;;;6.88;0.50;;;16.50;53.70;;;;;;6197089;23;20075;-86
2021/01/07 09:47:42;;;;;;;7.32;0.73;;;16.50;53.90;;;;;;6184315;23;20017;-85
2021/01/07 09:50:10;;;;;;;7.20;0.50;;;16.50;53.80;;;;;;6133183;23;20021;-84
2021/01/07 09:52:37;;;;;;;4.85;0.65;;;16.50;53.60;;;;;;6134961;23;20075;-86
2021/01/07 09:55:05;;;;;;;6.18;0.82;;;16.60;53.50;;;;;;6134470;23;20021;-85
2021/01/07 09:57:31;;;;;;;4.28;0.30;;;16.60;53.30;;;;;;6135413;23;20024;-86
2021/01/07 10:00:00;;;;;;;7.75;0.47;;;16.50;53.20;;;;;;6158534;23;20037;-85
2021/01/07 10:02:26;;;;;;;4.95;0.30;;;16.60;53.30;;;;;;6133553;23;20024;-85
2021/01/07 10:04:52;;;;;;;2.47;0.40;;;16.60;53.20;;;;;;6135667;23;20319;-86
2021/01/07 10:07:18;;;;;;;5.40;0.40;;;16.60;53.10;;;;;;6134796;23;20132;-85
2021/01/07 10:09:44;;;;;;;8.93;0.93;;;16.60;53.00;;;;;;6135738;23;20304;-85
2021/01/07 10:12:10;;;;;;;6.63;0.55;;;16.50;53.50;;;;;;6135626;23;20020;-84
2021/01/07 10:14:36;;;;;;;10.95;1.15;;;16.50;53.60;;;;;;6134045;23;20017;-86
2021/01/07 10:17:07;;;;;;;7.90;0.88;;;16.50;53.60;;;;;;6135306;23;20017;-84
2021/01/07 10:19:35;;;;;;;7.68;0.63;;;16.50;53.60;;;;;;6133929;23;20389;-87
2021/01/07 10:22:15;;;;;;;6.35;1.08;;;16.50;53.60;;;;;;6135274;23;20017;-85
2021/01/07 10:24:46;;;;;;;11.38;0.88;;;16.50;52.30;;;;;;6157179;22;20098;-86
2021/01/07 10:27:16;;;;;;;9.73;0.98;;;16.50;53.10;;;;;;6195556;23;20333;-86
2021/01/07 10:29:48;;;;;;;9.77;1.00;;;16.50;53.50;;;;;;6230876;23;20032;-86
2021/01/07 10:32:16;;;;;;;10.38;1.05;;;16.40;53.70;;;;;;6196105;23;20043;-85
2021/01/07 10:34:45;;;;;;;16.02;1.25;;;16.40;53.90;;;;;;6197072;23;20318;-83
2021/01/07 10:37:12;;;;;;;12.82;1.40;;;16.40;53.70;;;;;;6197575;23;20020;-83
2021/01/07 10:39:41;;;;;;;8.05;1.35;;;16.40;53.80;;;;;;6230747;23;20016;-82
2021/01/07 10:42:12;;;;;;;9.25;0.82;;;16.40;53.80;;;;;;6249289;23;20012;-84
2021/01/07 10:44:40;;;;;;;7.72;0.50;;;16.30;53.90;;;;;;6220901;23;20327;-83
2021/01/07 10:47:08;;;;;;;4.88;0.68;;;16.20;54.00;;;;;;6220147;23;20092;-92
2021/01/07 10:49:36;;;;;;;6.65;0.80;;;16.20;54.10;;;;;;6197517;23;20020;-87
2021/01/07 10:52:10;;;;;;;5.22;0.73;;;16.20;54.30;;;;;;6198300;23;20433;-83
2021/01/07 10:55:11;;;;;;;3.47;0.50;;;16.20;54.50;;;;;;6196407;23;20020;-88
2021/01/07 10:58:01;;;;;;;4.78;0.40;;;16.10;54.70;;;;;;6233465;23;20027;-82
2021/01/07 11:00:46;;;;;;;2.50;0.30;;;16.00;54.80;;;;;;6221445;23;20302;-83
2021/01/07 11:03:54;;;;;;;58.13;4.18;;;15.90;54.60;;;;;;6259027;23;20072;-85
2021/01/07 11:06:24;;;;;;;2.63;0.40;;;15.70;54.80;;;;;;6257812;23;20020;-84
2021/01/07 11:08:59;;;;;;;4.82;0.50;;;15.60;55.30;;;;;;6195215;23;20476;-81
2021/01/07 11:11:28;;;;;;;18.92;2.85;;;15.50;55.60;;;;;;6249155;23;20327;-81
2021/01/07 11:14:07;;;;;;;15.65;2.58;;;15.50;56.00;;;;;;6258372;23;20012;-80
2021/01/07 11:16:46;;;;;;;43.75;7.65;;;15.60;57.20;;;;;;6259009;23;20091;-76
2021/01/07 11:19:20;;;;;;;17.17;3.58;;;15.50;58.20;;;;;;6258406;23;20047;-77
2021/01/07 11:21:52;;;;;;;;;;;15.50;59.50;;;;;;6257893;23;20016;-77
2021/01/07 11:24:20;;;;;;;17.63;4.78;;;15.50;59.00;;;;;;6258660;23;19923;-78
2021/01/07 11:26:46;;;;;;;26.52;6.15;;;15.70;60.20;;;;;;6254396;23;20016;-77
2021/01/07 11:29:13;;;;;;;21.27;6.05;;;15.70;61.10;;;;;;6259103;23;20016;-78
2021/01/07 11:31:41;;;;;;;22.08;5.30;;;15.80;61.60;;;;;;6258700;23;20020;-79
2021/01/07 11:34:08;;;;;;;38.92;11.10;;;16.00;62.60;;;;;;6230320;23;20341;-80
2021/01/07 11:36:41;;;;;;;26.30;9.80;;;16.00;62.10;;;;;;6258091;23;20031;-80
2021/01/07 11:39:07;;;;;;;28.10;8.23;;;16.00;60.90;;;;;;6258447;23;20381;-81
2021/01/07 11:41:53;;;;;;;27.23;7.90;;;16.00;60.70;;;;;;6259194;23;20019;-81
2021/01/07 11:44:41;;;;;;;20.85;6.93;;;16.00;60.80;;;;;;6248244;23;20020;-79
2021/01/07 11:47:10;;;;;;;19.55;5.57;;;16.00;60.90;;;;;;6259030;23;20016;-78
2021/01/07 11:49:40;;;;;;;14.38;4.55;;;16.10;61.50;;;;;;6259137;23;20035;-78
2021/01/07 11:52:08;;;;;;;16.15;4.15;;;16.20;60.70;;;;;;6247412;23;20020;-81
2021/01/07 11:54:38;;;;;;;12.82;4.45;;;16.20;60.40;;;;;;6222040;23;20016;-85
2021/01/07 11:57:08;;;;;;;10.95;2.28;;;16.30;60.00;;;;;;6232251;23;20016;-79
2021/01/07 11:59:40;;;;;;;9.68;2.03;;;16.20;57.90;;;;;;6257018;23;20034;-82
2021/01/07 12:02:11;;;;;;;10.73;1.77;;;16.20;57.30;;;;;;6230900;23;20016;-80
2021/01/07 12:04:37;;;;;;;11.23;1.83;;;16.10;57.50;;;;;;6258645;23;20012;-80
2021/01/07 12:07:45;;;;;;;10.93;2.08;;;16.10;57.90;;;;;;6258709;23;20012;-80
2021/01/07 12:10:13;;;;;;;16.20;2.55;;;16.00;58.10;;;;;;6248573;23;20013;-80
2021/01/07 12:13:01;;;;;;;11.13;2.40;;;16.00;58.40;;;;;;6258537;23;20020;-82
2021/01/07 12:15:27;;;;;;;13.80;2.28;;;16.00;58.60;;;;;;6222283;23;20020;-78
2021/01/07 12:17:55;;;;;;;8.10;1.65;;;16.00;58.40;;;;;;6258482;23;20012;-81
2021/01/07 12:20:22;;;;;;;10.45;2.10;;;16.10;58.50;;;;;;6196269;23;20032;-81
2021/01/07 12:22:57;;;;;;;8.90;1.60;;;16.10;58.50;;;;;;6248437;23;20020;-84
2021/01/07 12:25:23;;;;;;;12.45;1.85;;;16.20;58.40;;;;;;6197036;23;20016;-80
2021/01/07 12:27:49;;;;;;;7.45;1.33;;;16.20;58.30;;;;;;6248985;23;20038;-80
2021/01/07 12:30:18;;;;;;;4.85;1.10;;;16.20;58.10;;;;;;6257753;23;20425;-80
2021/01/07 12:33:22;;;;;;;5.85;1.67;;;16.20;57.90;;;;;;6257560;23;20091;-81
2021/01/07 12:36:40;;;;;;;11.63;1.67;;;16.30;57.70;;;;;;6248283;23;20031;-80
2021/01/07 12:39:13;;;;;;;5.63;1.00;;;16.30;57.50;;;;;;6184263;23;20328;-80
2021/01/07 12:41:48;;;;;;;7.78;0.98;;;16.40;57.50;;;;;;6256128;23;20095;-81
2021/01/07 12:44:16;;;;;;;6.03;0.90;;;16.40;57.40;;;;;;6245352;23;20095;-81
2021/01/07 12:46:46;;;;;;;10.00;1.67;;;16.40;57.10;;;;;;6229968;23;20016;-79
2021/01/07 12:49:17;;;;;;;10.98;1.58;;;16.40;57.00;;;;;;6230796;23;20012;-78
2021/01/07 12:51:44;;;;;;;11.65;1.13;;;16.40;57.20;;;;;;6255827;23;20023;-79
2021/01/07 12:54:14;;;;;;;10.93;0.90;;;16.40;57.40;;;;;;6246728;23;20356;-79
2021/01/07 12:57:10;;;;;;;15.10;0.93;;;16.40;57.10;;;;;;6258620;23;20039;-79
2021/01/07 12:59:44;;;;;;;4.75;0.30;;;16.30;56.10;;;;;;6246759;23;20321;-80
2021/01/07 13:02:50;;;;;;;3.67;0.60;;;16.20;54.20;;;;;;6220374;23;20016;-79
2021/01/07 13:05:23;;;;;;;1.90;0.32;;;15.90;54.20;;;;;;6245572;23;20066;-81
2021/01/07 13:07:54;;;;;;;6.38;0.60;;;15.90;55.20;;;;;;6257093;23;20012;-80
2021/01/07 13:10:22;;;;;;;6.80;0.50;;;15.80;55.50;;;;;;6257131;23;20513;-80
2021/01/07 13:12:48;;;;;;;4.72;0.68;;;15.80;55.70;;;;;;6247810;23;20043;-79
2021/01/07 13:15:14;;;;;;;3.38;0.65;;;15.80;55.70;;;;;;6230073;23;20324;-80
2021/01/07 13:17:42;;;;;;;3.35;0.70;;;15.80;55.70;;;;;;6221502;23;20091;-79
2021/01/07 13:20:08;;;;;;;9.05;0.82;;;15.90;55.70;;;;;;6258374;23;20023;-80
2021/01/07 13:22:35;;;;;;;3.03;0.50;;;15.90;55.60;;;;;;6257950;23;20023;-79
2021/01/07 13:25:02;;;;;;;1.73;0.22;;;15.90;55.50;;;;;;6247456;23;20436;-80
2021/01/07 13:27:28;;;;;;;5.13;0.68;;;15.80;55.40;;;;;;6247732;23;20043;-81
2021/01/07 13:29:55;;;;;;;2.00;0.30;;;15.90;55.40;;;;;;6247620;23;20021;-78
2021/01/07 13:32:22;;;;;;;3.20;0.30;;;15.90;55.30;;;;;;6232074;23;20016;-79
2021/01/07 13:34:53;;;;;;;3.63;0.30;;;15.80;55.30;;;;;;6230287;23;20172;-79
2021/01/07 13:37:21;;;;;;;1.83;0.32;;;15.80;55.10;;;;;;6257817;23;20015;-80
2021/01/07 13:39:48;;;;;;;3.83;0.40;;;15.80;55.10;;;;;;6247365;23;20019;-78
2021/01/07 13:42:16;;;;;;;3.53;0.20;;;15.80;55.00;;;;;;6258204;23;20012;-79
2021/01/07 13:44:53;;;;;;;2.28;0.30;;;15.80;55.00;;;;;;6221316;23;20015;-80
2021/01/07 13:47:21;;;;;;;1.50;0.22;;;15.80;54.90;;;;;;6257879;23;20035;-79
2021/01/07 13:49:55;;;;;;;2.47;0.20;;;15.80;54.90;;;;;;6258178;23;20061;-80